sensor_id;sensor_type;location;lat;lon;timestamp;P1;durP1;ratioP1;P2;durP2;ratioP2
34242;SDS011;20504;43.214;27.920;2023-08-07T00:00:25;6.15;;;4.68;;
34242;SDS011;20504;43.214;27.920;2023-08-07T00:02:50;5.90;;;5.30;;
34242;SDS011;20504;43.214;27.920;2023-08-07T00:05:16;11.70;;;5.20;;
34242;SDS011;20504;43.214;27.920;2023-08-07T00:07:44;7.65;;;5.25;;
34242;SDS011;20504;43.214;27.920;2023-08-07T00:10:10;6.43;;;4.87;;
34242;SDS011;20504;43.214;27.920;2023-08-07T00:12:35;7.33;;;5.03;;
34242;SDS011;20504;43.214;27.920;2023-08-07T00:15:01;9.67;;;4.47;;
34242;SDS011;20504;43.214;27.920;2023-08-07T00:17:27;6.15;;;4.88;;
34242;SDS011;20504;43.214;27.920;2023-08-07T00:19:53;6.10;;;5.30;;
34242;SDS011;20504;43.214;27.920;2023-08-07T00:22:19;6.07;;;5.07;;
34242;SDS011;20504;43.214;27.920;2023-08-07T00:24:45;5.67;;;5.17;;
34242;SDS011;20504;43.214;27.920;2023-08-07T00:27:10;10.27;;;5.67;;
34242;SDS011;20504;43.214;27.920;2023-08-07T00:32:03;8.52;;;4.93;;
34242;SDS011;20504;43.214;27.920;2023-08-07T00:34:29;7.00;;;5.35;;
34242;SDS011;20504;43.214;27.920;2023-08-07T00:36:54;9.48;;;5.13;;
34242;SDS011;20504;43.214;27.920;2023-08-07T00:39:20;6.83;;;5.43;;
34242;SDS011;20504;43.214;27.920;2023-08-07T00:41:46;6.32;;;5.68;;
34242;SDS011;20504;43.214;27.920;2023-08-07T00:44:11;8.67;;;6.73;;
34242;SDS011;20504;43.214;27.920;2023-08-07T00:46:37;9.77;;;6.73;;
34242;SDS011;20504;43.214;27.920;2023-08-07T00:49:04;7.25;;;6.03;;
34242;SDS011;20504;43.214;27.920;2023-08-07T00:53:56;7.70;;;5.93;;
34242;SDS011;20504;43.214;27.920;2023-08-07T00:56:22;8.63;;;6.23;;
34242;SDS011;20504;43.214;27.920;2023-08-07T01:01:15;8.48;;;6.22;;
34242;SDS011;20504;43.214;27.920;2023-08-07T01:03:40;8.97;;;6.33;;
34242;SDS011;20504;43.214;27.920;2023-08-07T01:06:06;8.23;;;7.33;;
34242;SDS011;20504;43.214;27.920;2023-08-07T01:08:32;11.80;;;8.60;;
34242;SDS011;20504;43.214;27.920;2023-08-07T01:13:31;11.97;;;8.97;;
34242;SDS011;20504;43.214;27.920;2023-08-07T01:16:04;9.23;;;8.27;;
34242;SDS011;20504;43.214;27.920;2023-08-07T01:18:37;10.07;;;8.82;;
34242;SDS011;20504;43.214;27.920;2023-08-07T01:23:29;14.70;;;9.25;;
34242;SDS011;20504;43.214;27.920;2023-08-07T01:25:55;10.27;;;9.03;;
34242;SDS011;20504;43.214;27.920;2023-08-07T01:28:27;10.77;;;9.63;;
34242;SDS011;20504;43.214;27.920;2023-08-07T01:31:03;9.85;;;8.85;;
34242;SDS011;20504;43.214;27.920;2023-08-07T01:36:27;11.85;;;9.20;;
34242;SDS011;20504;43.214;27.920;2023-08-07T01:41:20;10.27;;;9.23;;
34242;SDS011;20504;43.214;27.920;2023-08-07T01:43:46;11.90;;;9.80;;
34242;SDS011;20504;43.214;27.920;2023-08-07T01:46:12;12.00;;;10.70;;
34242;SDS011;20504;43.214;27.920;2023-08-07T01:48:37;11.50;;;10.30;;
34242;SDS011;20504;43.214;27.920;2023-08-07T01:51:03;13.13;;;9.83;;
34242;SDS011;20504;43.214;27.920;2023-08-07T01:53:28;11.97;;;10.30;;
34242;SDS011;20504;43.214;27.920;2023-08-07T01:55:54;14.03;;;11.00;;
34242;SDS011;20504;43.214;27.920;2023-08-07T01:58:19;12.03;;;10.57;;
34242;SDS011;20504;43.214;27.920;2023-08-07T02:00:45;13.17;;;9.73;;
34242;SDS011;20504;43.214;27.920;2023-08-07T02:03:10;11.67;;;9.93;;
34242;SDS011;20504;43.214;27.920;2023-08-07T02:05:36;13.10;;;10.50;;
34242;SDS011;20504;43.214;27.920;2023-08-07T02:08:01;11.20;;;10.10;;
34242;SDS011;20504;43.214;27.920;2023-08-07T02:10:26;12.47;;;10.30;;
34242;SDS011;20504;43.214;27.920;2023-08-07T02:12:53;10.07;;;8.80;;
34242;SDS011;20504;43.214;27.920;2023-08-07T02:15:18;10.37;;;9.27;;
34242;SDS011;20504;43.214;27.920;2023-08-07T02:17:44;13.70;;;9.73;;
34242;SDS011;20504;43.214;27.920;2023-08-07T02:20:10;11.67;;;9.93;;
34242;SDS011;20504;43.214;27.920;2023-08-07T02:22:36;13.27;;;9.32;;
34242;SDS011;20504;43.214;27.920;2023-08-07T02:25:01;10.77;;;9.67;;
34242;SDS011;20504;43.214;27.920;2023-08-07T02:27:27;11.73;;;9.10;;
34242;SDS011;20504;43.214;27.920;2023-08-07T02:29:52;10.93;;;9.23;;
34242;SDS011;20504;43.214;27.920;2023-08-07T02:32:20;11.48;;;8.90;;
34242;SDS011;20504;43.214;27.920;2023-08-07T02:34:45;10.20;;;9.00;;
34242;SDS011;20504;43.214;27.920;2023-08-07T02:37:11;10.47;;;8.77;;
34242;SDS011;20504;43.214;27.920;2023-08-07T02:39:36;9.97;;;8.83;;
34242;SDS011;20504;43.214;27.920;2023-08-07T02:42:06;10.65;;;7.88;;
34242;SDS011;20504;43.214;27.920;2023-08-07T02:44:31;11.07;;;9.30;;
34242;SDS011;20504;43.214;27.920;2023-08-07T02:49:23;10.52;;;8.93;;
34242;SDS011;20504;43.214;27.920;2023-08-07T02:51:49;13.43;;;8.83;;
34242;SDS011;20504;43.214;27.920;2023-08-07T02:54:14;11.97;;;9.03;;
34242;SDS011;20504;43.214;27.920;2023-08-07T02:56:40;11.63;;;8.73;;
34242;SDS011;20504;43.214;27.920;2023-08-07T02:59:06;9.20;;;8.35;;
34242;SDS011;20504;43.214;27.920;2023-08-07T03:01:31;9.57;;;8.53;;
34242;SDS011;20504;43.214;27.920;2023-08-07T03:03:57;10.50;;;8.43;;
34242;SDS011;20504;43.214;27.920;2023-08-07T03:06:23;8.73;;;7.23;;
34242;SDS011;20504;43.214;27.920;2023-08-07T03:08:48;10.88;;;8.43;;
34242;SDS011;20504;43.214;27.920;2023-08-07T03:11:14;10.23;;;8.10;;
34242;SDS011;20504;43.214;27.920;2023-08-07T03:13:39;9.13;;;8.23;;
34242;SDS011;20504;43.214;27.920;2023-08-07T03:16:05;9.87;;;7.90;;
34242;SDS011;20504;43.214;27.920;2023-08-07T03:18:31;9.05;;;7.70;;
34242;SDS011;20504;43.214;27.920;2023-08-07T03:20:57;10.77;;;7.72;;
34242;SDS011;20504;43.214;27.920;2023-08-07T03:23:23;7.72;;;7.03;;
34242;SDS011;20504;43.214;27.920;2023-08-07T03:25:50;9.00;;;7.00;;
34242;SDS011;20504;43.214;27.920;2023-08-07T03:28:16;13.32;;;7.82;;
34242;SDS011;20504;43.214;27.920;2023-08-07T03:30:42;9.25;;;7.47;;
34242;SDS011;20504;43.214;27.920;2023-08-07T03:33:09;7.20;;;6.50;;
34242;SDS011;20504;43.214;27.920;2023-08-07T03:35:35;9.50;;;7.70;;
34242;SDS011;20504;43.214;27.920;2023-08-07T03:38:00;11.53;;;7.40;;
34242;SDS011;20504;43.214;27.920;2023-08-07T03:40:26;8.47;;;6.33;;
34242;SDS011;20504;43.214;27.920;2023-08-07T03:42:51;9.57;;;6.73;;
34242;SDS011;20504;43.214;27.920;2023-08-07T03:45:17;8.37;;;6.30;;
34242;SDS011;20504;43.214;27.920;2023-08-07T03:47:42;7.20;;;6.27;;
34242;SDS011;20504;43.214;27.920;2023-08-07T03:50:08;7.63;;;6.47;;
34242;SDS011;20504;43.214;27.920;2023-08-07T03:52:33;7.73;;;6.23;;
34242;SDS011;20504;43.214;27.920;2023-08-07T03:54:59;7.93;;;5.77;;
34242;SDS011;20504;43.214;27.920;2023-08-07T03:57:24;7.37;;;6.40;;
34242;SDS011;20504;43.214;27.920;2023-08-07T03:59:50;9.17;;;6.20;;
34242;SDS011;20504;43.214;27.920;2023-08-07T04:02:15;6.77;;;5.93;;
34242;SDS011;20504;43.214;27.920;2023-08-07T04:04:41;12.70;;;6.27;;
34242;SDS011;20504;43.214;27.920;2023-08-07T04:07:06;8.77;;;6.33;;
34242;SDS011;20504;43.214;27.920;2023-08-07T04:09:32;9.20;;;6.07;;
34242;SDS011;20504;43.214;27.920;2023-08-07T04:11:58;6.30;;;5.70;;
34242;SDS011;20504;43.214;27.920;2023-08-07T04:14:23;6.70;;;6.03;;
34242;SDS011;20504;43.214;27.920;2023-08-07T04:16:49;5.60;;;5.07;;
34242;SDS011;20504;43.214;27.920;2023-08-07T04:19:14;8.33;;;4.67;;
34242;SDS011;20504;43.214;27.920;2023-08-07T04:21:40;5.80;;;4.90;;
34242;SDS011;20504;43.214;27.920;2023-08-07T04:24:05;9.00;;;5.67;;
34242;SDS011;20504;43.214;27.920;2023-08-07T04:26:36;6.00;;;4.57;;
34242;SDS011;20504;43.214;27.920;2023-08-07T04:29:02;8.23;;;4.88;;
34242;SDS011;20504;43.214;27.920;2023-08-07T04:31:28;6.90;;;4.63;;
34242;SDS011;20504;43.214;27.920;2023-08-07T04:33:56;5.45;;;4.60;;
34242;SDS011;20504;43.214;27.920;2023-08-07T04:36:22;4.32;;;3.92;;
34242;SDS011;20504;43.214;27.920;2023-08-07T04:38:48;8.43;;;4.20;;
34242;SDS011;20504;43.214;27.920;2023-08-07T04:41:13;7.67;;;4.33;;
34242;SDS011;20504;43.214;27.920;2023-08-07T04:43:38;11.53;;;4.50;;
34242;SDS011;20504;43.214;27.920;2023-08-07T04:46:04;6.27;;;4.40;;
34242;SDS011;20504;43.214;27.920;2023-08-07T04:48:29;9.37;;;4.47;;
34242;SDS011;20504;43.214;27.920;2023-08-07T04:50:56;5.30;;;4.80;;
34242;SDS011;20504;43.214;27.920;2023-08-07T04:53:22;7.75;;;5.82;;
34242;SDS011;20504;43.214;27.920;2023-08-07T04:55:48;5.90;;;3.93;;
34242;SDS011;20504;43.214;27.920;2023-08-07T04:58:13;12.73;;;4.07;;
34242;SDS011;20504;43.214;27.920;2023-08-07T05:00:39;4.53;;;3.70;;
34242;SDS011;20504;43.214;27.920;2023-08-07T05:03:04;6.00;;;3.87;;
34242;SDS011;20504;43.214;27.920;2023-08-07T05:05:30;4.97;;;3.73;;
34242;SDS011;20504;43.214;27.920;2023-08-07T05:07:57;5.22;;;3.60;;
34242;SDS011;20504;43.214;27.920;2023-08-07T05:10:23;7.03;;;3.85;;
34242;SDS011;20504;43.214;27.920;2023-08-07T05:12:49;8.53;;;3.27;;
34242;SDS011;20504;43.214;27.920;2023-08-07T05:15:20;4.80;;;3.40;;
34242;SDS011;20504;43.214;27.920;2023-08-07T05:17:47;3.80;;;3.40;;
34242;SDS011;20504;43.214;27.920;2023-08-07T05:20:12;7.10;;;3.80;;
34242;SDS011;20504;43.214;27.920;2023-08-07T05:22:37;5.80;;;4.07;;
34242;SDS011;20504;43.214;27.920;2023-08-07T05:25:03;4.93;;;3.50;;
34242;SDS011;20504;43.214;27.920;2023-08-07T05:27:29;5.40;;;3.25;;
34242;SDS011;20504;43.214;27.920;2023-08-07T05:29:54;4.80;;;2.87;;
34242;SDS011;20504;43.214;27.920;2023-08-07T05:32:20;7.27;;;3.27;;
34242;SDS011;20504;43.214;27.920;2023-08-07T05:34:45;9.17;;;3.50;;
34242;SDS011;20504;43.214;27.920;2023-08-07T05:37:11;5.43;;;2.70;;
34242;SDS011;20504;43.214;27.920;2023-08-07T05:39:36;5.33;;;3.13;;
34242;SDS011;20504;43.214;27.920;2023-08-07T05:42:02;2.53;;;2.23;;
34242;SDS011;20504;43.214;27.920;2023-08-07T05:44:28;4.22;;;3.05;;
34242;SDS011;20504;43.214;27.920;2023-08-07T05:46:54;4.82;;;3.20;;
34242;SDS011;20504;43.214;27.920;2023-08-07T05:49:19;5.97;;;2.80;;
34242;SDS011;20504;43.214;27.920;2023-08-07T05:51:45;4.40;;;2.93;;
34242;SDS011;20504;43.214;27.920;2023-08-07T05:54:11;4.20;;;2.42;;
34242;SDS011;20504;43.214;27.920;2023-08-07T05:56:37;8.70;;;2.57;;
34242;SDS011;20504;43.214;27.920;2023-08-07T05:59:03;11.70;;;2.60;;
34242;SDS011;20504;43.214;27.920;2023-08-07T06:01:29;3.53;;;3.17;;
34242;SDS011;20504;43.214;27.920;2023-08-07T06:03:56;5.40;;;4.10;;
34242;SDS011;20504;43.214;27.920;2023-08-07T06:06:23;7.50;;;3.03;;
34242;SDS011;20504;43.214;27.920;2023-08-07T06:08:56;4.63;;;2.15;;
34242;SDS011;20504;43.214;27.920;2023-08-07T06:11:22;5.35;;;2.70;;
34242;SDS011;20504;43.214;27.920;2023-08-07T06:13:48;3.63;;;2.40;;
34242;SDS011;20504;43.214;27.920;2023-08-07T06:16:14;6.57;;;2.42;;
34242;SDS011;20504;43.214;27.920;2023-08-07T06:18:40;8.07;;;2.33;;
34242;SDS011;20504;43.214;27.920;2023-08-07T06:21:05;6.03;;;1.97;;
34242;SDS011;20504;43.214;27.920;2023-08-07T06:23:32;5.28;;;2.45;;
34242;SDS011;20504;43.214;27.920;2023-08-07T06:25:58;2.88;;;2.45;;
34242;SDS011;20504;43.214;27.920;2023-08-07T06:28:27;9.02;;;2.40;;
34242;SDS011;20504;43.214;27.920;2023-08-07T06:30:52;9.57;;;2.22;;
34242;SDS011;20504;43.214;27.920;2023-08-07T06:33:18;9.30;;;1.87;;
34242;SDS011;20504;43.214;27.920;2023-08-07T06:35:43;8.50;;;2.50;;
34242;SDS011;20504;43.214;27.920;2023-08-07T06:38:09;6.13;;;2.37;;
34242;SDS011;20504;43.214;27.920;2023-08-07T06:40:34;8.07;;;2.53;;
34242;SDS011;20504;43.214;27.920;2023-08-07T06:43:00;6.13;;;2.22;;
34242;SDS011;20504;43.214;27.920;2023-08-07T06:45:25;5.33;;;2.37;;
34242;SDS011;20504;43.214;27.920;2023-08-07T06:47:51;7.07;;;2.17;;
34242;SDS011;20504;43.214;27.920;2023-08-07T06:50:17;6.67;;;1.93;;
34242;SDS011;20504;43.214;27.920;2023-08-07T06:52:42;6.17;;;2.20;;
34242;SDS011;20504;43.214;27.920;2023-08-07T06:55:07;7.30;;;2.43;;
34242;SDS011;20504;43.214;27.920;2023-08-07T06:57:33;4.77;;;2.40;;
34242;SDS011;20504;43.214;27.920;2023-08-07T06:59:59;9.45;;;2.30;;
34242;SDS011;20504;43.214;27.920;2023-08-07T07:02:25;2.30;;;1.90;;
34242;SDS011;20504;43.214;27.920;2023-08-07T07:04:51;2.75;;;2.25;;
34242;SDS011;20504;43.214;27.920;2023-08-07T07:07:16;5.80;;;2.20;;
34242;SDS011;20504;43.214;27.920;2023-08-07T07:09:42;12.03;;;2.13;;
34242;SDS011;20504;43.214;27.920;2023-08-07T07:12:07;5.97;;;2.37;;
34242;SDS011;20504;43.214;27.920;2023-08-07T07:14:33;9.57;;;2.20;;
34242;SDS011;20504;43.214;27.920;2023-08-07T07:16:59;8.70;;;2.20;;
34242;SDS011;20504;43.214;27.920;2023-08-07T07:19:25;3.83;;;1.83;;
34242;SDS011;20504;43.214;27.920;2023-08-07T07:21:51;11.27;;;2.15;;
34242;SDS011;20504;43.214;27.920;2023-08-07T07:24:17;7.03;;;1.90;;
34242;SDS011;20504;43.214;27.920;2023-08-07T07:26:42;3.95;;;1.75;;
34242;SDS011;20504;43.214;27.920;2023-08-07T07:29:08;3.47;;;2.17;;
34242;SDS011;20504;43.214;27.920;2023-08-07T07:31:34;2.13;;;1.60;;
34242;SDS011;20504;43.214;27.920;2023-08-07T07:33:59;7.10;;;2.00;;
34242;SDS011;20504;43.214;27.920;2023-08-07T07:36:25;6.33;;;2.30;;
34242;SDS011;20504;43.214;27.920;2023-08-07T07:38:50;5.33;;;1.90;;
34242;SDS011;20504;43.214;27.920;2023-08-07T07:41:15;2.70;;;2.10;;
34242;SDS011;20504;43.214;27.920;2023-08-07T07:43:41;6.80;;;1.73;;
34242;SDS011;20504;43.214;27.920;2023-08-07T07:46:07;4.23;;;2.13;;
34242;SDS011;20504;43.214;27.920;2023-08-07T07:48:32;10.13;;;2.00;;
34242;SDS011;20504;43.214;27.920;2023-08-07T07:51:04;4.93;;;2.10;;
34242;SDS011;20504;43.214;27.920;2023-08-07T07:53:30;8.02;;;2.30;;
34242;SDS011;20504;43.214;27.920;2023-08-07T07:55:55;8.07;;;2.63;;
34242;SDS011;20504;43.214;27.920;2023-08-07T07:58:21;6.80;;;1.63;;
34242;SDS011;20504;43.214;27.920;2023-08-07T08:00:47;3.95;;;2.10;;
34242;SDS011;20504;43.214;27.920;2023-08-07T08:03:12;6.07;;;1.90;;
34242;SDS011;20504;43.214;27.920;2023-08-07T08:05:38;5.67;;;1.67;;
34242;SDS011;20504;43.214;27.920;2023-08-07T08:08:05;3.35;;;1.85;;
34242;SDS011;20504;43.214;27.920;2023-08-07T08:10:32;4.15;;;2.22;;
34242;SDS011;20504;43.214;27.920;2023-08-07T08:12:59;3.97;;;2.25;;
34242;SDS011;20504;43.214;27.920;2023-08-07T08:15:24;3.53;;;1.70;;
34242;SDS011;20504;43.214;27.920;2023-08-07T08:17:50;2.83;;;1.97;;
34242;SDS011;20504;43.214;27.920;2023-08-07T08:20:15;6.97;;;2.00;;
34242;SDS011;20504;43.214;27.920;2023-08-07T08:22:43;5.68;;;2.42;;
34242;SDS011;20504;43.214;27.920;2023-08-07T08:25:09;4.07;;;2.10;;
34242;SDS011;20504;43.214;27.920;2023-08-07T08:27:36;3.40;;;1.92;;
34242;SDS011;20504;43.214;27.920;2023-08-07T08:30:02;6.95;;;1.98;;
34242;SDS011;20504;43.214;27.920;2023-08-07T08:32:28;7.38;;;2.13;;
34242;SDS011;20504;43.214;27.920;2023-08-07T08:34:54;4.30;;;2.13;;
34242;SDS011;20504;43.214;27.920;2023-08-07T08:37:20;4.72;;;1.90;;
34242;SDS011;20504;43.214;27.920;2023-08-07T08:39:46;4.68;;;2.03;;
34242;SDS011;20504;43.214;27.920;2023-08-07T08:42:12;5.20;;;2.03;;
34242;SDS011;20504;43.214;27.920;2023-08-07T08:44:44;4.30;;;2.15;;
34242;SDS011;20504;43.214;27.920;2023-08-07T08:47:16;5.93;;;2.33;;
34242;SDS011;20504;43.214;27.920;2023-08-07T08:49:46;3.35;;;2.33;;
34242;SDS011;20504;43.214;27.920;2023-08-07T08:52:13;3.05;;;2.15;;
34242;SDS011;20504;43.214;27.920;2023-08-07T08:54:42;3.90;;;2.35;;
34242;SDS011;20504;43.214;27.920;2023-08-07T08:57:09;5.53;;;2.00;;
34242;SDS011;20504;43.214;27.920;2023-08-07T08:59:36;4.68;;;2.10;;
34242;SDS011;20504;43.214;27.920;2023-08-07T09:02:02;4.30;;;2.13;;
34242;SDS011;20504;43.214;27.920;2023-08-07T09:06:54;4.05;;;2.25;;
34242;SDS011;20504;43.214;27.920;2023-08-07T09:09:20;11.10;;;3.07;;
34242;SDS011;20504;43.214;27.920;2023-08-07T09:11:46;4.30;;;2.28;;
34242;SDS011;20504;43.214;27.920;2023-08-07T09:14:15;2.95;;;2.17;;
34242;SDS011;20504;43.214;27.920;2023-08-07T09:16:41;2.45;;;2.25;;
34242;SDS011;20504;43.214;27.920;2023-08-07T09:19:08;7.40;;;2.63;;
34242;SDS011;20504;43.214;27.920;2023-08-07T09:21:34;3.80;;;2.20;;
34242;SDS011;20504;43.214;27.920;2023-08-07T09:26:25;4.82;;;2.42;;
34242;SDS011;20504;43.214;27.920;2023-08-07T09:28:54;5.60;;;2.33;;
34242;SDS011;20504;43.214;27.920;2023-08-07T09:31:20;3.00;;;2.28;;
34242;SDS011;20504;43.214;27.920;2023-08-07T09:33:47;3.75;;;2.47;;
34242;SDS011;20504;43.214;27.920;2023-08-07T09:36:13;3.85;;;2.88;;
34242;SDS011;20504;43.214;27.920;2023-08-07T09:38:39;3.80;;;2.38;;
34242;SDS011;20504;43.214;27.920;2023-08-07T09:41:04;4.33;;;2.00;;
34242;SDS011;20504;43.214;27.920;2023-08-07T09:43:34;5.00;;;2.20;;
34242;SDS011;20504;43.214;27.920;2023-08-07T09:46:06;3.95;;;2.22;;
34242;SDS011;20504;43.214;27.920;2023-08-07T09:48:38;7.57;;;3.00;;
34242;SDS011;20504;43.214;27.920;2023-08-07T09:51:05;2.90;;;1.80;;
34242;SDS011;20504;43.214;27.920;2023-08-07T09:53:30;4.30;;;2.47;;
34242;SDS011;20504;43.214;27.920;2023-08-07T09:55:56;4.47;;;2.20;;
34242;SDS011;20504;43.214;27.920;2023-08-07T09:58:23;4.93;;;2.00;;
34242;SDS011;20504;43.214;27.920;2023-08-07T10:00:49;2.72;;;2.00;;
34242;SDS011;20504;43.214;27.920;2023-08-07T10:05:44;2.42;;;2.22;;
34242;SDS011;20504;43.214;27.920;2023-08-07T10:08:12;2.88;;;2.17;;
34242;SDS011;20504;43.214;27.920;2023-08-07T10:10:38;6.10;;;2.25;;
34242;SDS011;20504;43.214;27.920;2023-08-07T10:13:04;8.43;;;1.80;;
34242;SDS011;20504;43.214;27.920;2023-08-07T10:15:31;3.28;;;2.13;;
34242;SDS011;20504;43.214;27.920;2023-08-07T10:17:57;5.03;;;2.30;;
34242;SDS011;20504;43.214;27.920;2023-08-07T10:20:24;4.68;;;3.13;;
34242;SDS011;20504;43.214;27.920;2023-08-07T10:22:52;6.75;;;2.47;;
34242;SDS011;20504;43.214;27.920;2023-08-07T10:25:20;5.13;;;2.20;;
34242;SDS011;20504;43.214;27.920;2023-08-07T10:27:48;3.95;;;2.00;;
34242;SDS011;20504;43.214;27.920;2023-08-07T10:30:17;3.55;;;2.22;;
34242;SDS011;20504;43.214;27.920;2023-08-07T10:32:46;3.95;;;1.98;;
34242;SDS011;20504;43.214;27.920;2023-08-07T10:35:26;5.10;;;2.10;;
34242;SDS011;20504;43.214;27.920;2023-08-07T10:37:57;2.38;;;2.17;;
34242;SDS011;20504;43.214;27.920;2023-08-07T10:43:38;2.22;;;1.88;;
34242;SDS011;20504;43.214;27.920;2023-08-07T10:46:05;4.32;;;1.67;;
34242;SDS011;20504;43.214;27.920;2023-08-07T10:48:45;5.00;;;2.05;;
34242;SDS011;20504;43.214;27.920;2023-08-07T10:51:14;3.05;;;2.00;;
34242;SDS011;20504;43.214;27.920;2023-08-07T10:53:42;7.05;;;1.77;;
34242;SDS011;20504;43.214;27.920;2023-08-07T10:56:55;3.60;;;1.80;;
34242;SDS011;20504;43.214;27.920;2023-08-07T10:59:13;7.50;;;2.25;;
34242;SDS011;20504;43.214;27.920;2023-08-07T11:04:11;10.90;;;2.40;;
34242;SDS011;20504;43.214;27.920;2023-08-07T11:06:40;2.50;;;1.77;;
34242;SDS011;20504;43.214;27.920;2023-08-07T11:09:08;4.35;;;2.00;;
34242;SDS011;20504;43.214;27.920;2023-08-07T11:11:37;3.00;;;2.00;;
34242;SDS011;20504;43.214;27.920;2023-08-07T11:14:10;1.80;;;1.70;;
34242;SDS011;20504;43.214;27.920;2023-08-07T11:16:40;1.80;;;1.58;;
34242;SDS011;20504;43.214;27.920;2023-08-07T11:19:06;2.15;;;1.90;;
34242;SDS011;20504;43.214;27.920;2023-08-07T11:21:33;4.85;;;1.92;;
34242;SDS011;20504;43.214;27.920;2023-08-07T11:26:25;3.50;;;1.88;;
34242;SDS011;20504;43.214;27.920;2023-08-07T11:28:51;2.97;;;1.92;;
34242;SDS011;20504;43.214;27.920;2023-08-07T11:31:17;5.03;;;1.88;;
34242;SDS011;20504;43.214;27.920;2023-08-07T11:33:44;3.28;;;2.05;;
34242;SDS011;20504;43.214;27.920;2023-08-07T11:36:11;4.82;;;2.45;;
34242;SDS011;20504;43.214;27.920;2023-08-07T11:38:38;3.30;;;1.67;;
34242;SDS011;20504;43.214;27.920;2023-08-07T11:41:08;3.90;;;2.25;;
34242;SDS011;20504;43.214;27.920;2023-08-07T11:46:03;2.58;;;1.63;;
34242;SDS011;20504;43.214;27.920;2023-08-07T11:48:31;5.78;;;1.88;;
34242;SDS011;20504;43.214;27.920;2023-08-07T11:51:00;4.88;;;1.77;;
34242;SDS011;20504;43.214;27.920;2023-08-07T11:53:33;4.03;;;1.95;;
34242;SDS011;20504;43.214;27.920;2023-08-07T11:56:01;3.78;;;1.85;;
34242;SDS011;20504;43.214;27.920;2023-08-07T11:58:38;3.53;;;1.90;;
34242;SDS011;20504;43.214;27.920;2023-08-07T12:01:12;2.75;;;1.60;;
34242;SDS011;20504;43.214;27.920;2023-08-07T12:03:42;4.20;;;1.63;;
34242;SDS011;20504;43.214;27.920;2023-08-07T12:06:15;1.98;;;1.50;;
34242;SDS011;20504;43.214;27.920;2023-08-07T12:11:07;2.38;;;1.70;;
34242;SDS011;20504;43.214;27.920;2023-08-07T12:13:36;2.78;;;1.90;;
34242;SDS011;20504;43.214;27.920;2023-08-07T12:16:03;2.33;;;1.85;;
34242;SDS011;20504;43.214;27.920;2023-08-07T12:18:30;3.20;;;2.13;;
34242;SDS011;20504;43.214;27.920;2023-08-07T12:20:56;5.22;;;1.85;;
34242;SDS011;20504;43.214;27.920;2023-08-07T12:23:24;5.85;;;2.00;;
34242;SDS011;20504;43.214;27.920;2023-08-07T12:25:50;3.00;;;1.60;;
34242;SDS011;20504;43.214;27.920;2023-08-07T12:28:17;2.38;;;1.35;;
34242;SDS011;20504;43.214;27.920;2023-08-07T12:30:46;4.68;;;1.80;;
34242;SDS011;20504;43.214;27.920;2023-08-07T12:33:13;4.13;;;1.90;;
34242;SDS011;20504;43.214;27.920;2023-08-07T12:35:39;2.63;;;1.58;;
34242;SDS011;20504;43.214;27.920;2023-08-07T12:38:06;5.93;;;1.80;;
34242;SDS011;20504;43.214;27.920;2023-08-07T12:40:31;4.85;;;1.80;;
34242;SDS011;20504;43.214;27.920;2023-08-07T12:42:58;3.85;;;1.65;;
34242;SDS011;20504;43.214;27.920;2023-08-07T12:45:24;4.00;;;1.90;;
34242;SDS011;20504;43.214;27.920;2023-08-07T12:47:49;1.70;;;1.60;;
34242;SDS011;20504;43.214;27.920;2023-08-07T12:50:15;1.92;;;1.65;;
34242;SDS011;20504;43.214;27.920;2023-08-07T12:52:41;2.15;;;1.67;;
34242;SDS011;20504;43.214;27.920;2023-08-07T12:55:06;6.85;;;1.70;;
34242;SDS011;20504;43.214;27.920;2023-08-07T12:57:33;3.90;;;1.55;;
34242;SDS011;20504;43.214;27.920;2023-08-07T12:59:58;2.00;;;1.52;;
34242;SDS011;20504;43.214;27.920;2023-08-07T13:02:24;2.67;;;1.70;;
34242;SDS011;20504;43.214;27.920;2023-08-07T13:04:49;4.55;;;1.65;;
34242;SDS011;20504;43.214;27.920;2023-08-07T13:07:15;4.53;;;2.13;;
34242;SDS011;20504;43.214;27.920;2023-08-07T13:09:42;2.83;;;1.50;;
34242;SDS011;20504;43.214;27.920;2023-08-07T13:12:07;4.72;;;1.50;;
34242;SDS011;20504;43.214;27.920;2023-08-07T13:14:33;5.50;;;1.73;;
34242;SDS011;20504;43.214;27.920;2023-08-07T13:16:58;1.85;;;1.30;;
34242;SDS011;20504;43.214;27.920;2023-08-07T13:19:23;3.85;;;1.50;;
34242;SDS011;20504;43.214;27.920;2023-08-07T13:21:49;1.42;;;1.30;;
34242;SDS011;20504;43.214;27.920;2023-08-07T13:24:14;2.15;;;1.70;;
34242;SDS011;20504;43.214;27.920;2023-08-07T13:26:40;4.55;;;1.35;;
34242;SDS011;20504;43.214;27.920;2023-08-07T13:29:13;5.68;;;1.80;;
34242;SDS011;20504;43.214;27.920;2023-08-07T13:31:39;5.88;;;1.60;;
34242;SDS011;20504;43.214;27.920;2023-08-07T13:34:06;4.00;;;2.38;;
34242;SDS011;20504;43.214;27.920;2023-08-07T13:36:35;2.30;;;1.40;;
34242;SDS011;20504;43.214;27.920;2023-08-07T13:39:02;3.72;;;1.75;;
34242;SDS011;20504;43.214;27.920;2023-08-07T13:41:28;5.40;;;2.35;;
34242;SDS011;20504;43.214;27.920;2023-08-07T13:43:55;3.97;;;1.73;;
34242;SDS011;20504;43.214;27.920;2023-08-07T13:46:20;6.00;;;1.83;;
34242;SDS011;20504;43.214;27.920;2023-08-07T13:48:46;4.10;;;1.88;;
34242;SDS011;20504;43.214;27.920;2023-08-07T13:51:11;2.85;;;1.50;;
34242;SDS011;20504;43.214;27.920;2023-08-07T13:53:37;1.70;;;1.60;;
34242;SDS011;20504;43.214;27.920;2023-08-07T13:56:02;4.45;;;2.25;;
34242;SDS011;20504;43.214;27.920;2023-08-07T13:58:28;2.10;;;1.90;;
34242;SDS011;20504;43.214;27.920;2023-08-07T14:00:54;4.97;;;1.67;;
34242;SDS011;20504;43.214;27.920;2023-08-07T14:03:19;1.83;;;1.60;;
34242;SDS011;20504;43.214;27.920;2023-08-07T14:05:46;4.57;;;1.75;;
34242;SDS011;20504;43.214;27.920;2023-08-07T14:08:11;3.05;;;1.60;;
34242;SDS011;20504;43.214;27.920;2023-08-07T14:10:37;1.92;;;1.50;;
34242;SDS011;20504;43.214;27.920;2023-08-07T14:13:05;2.10;;;1.52;;
34242;SDS011;20504;43.214;27.920;2023-08-07T14:15:31;2.38;;;1.60;;
34242;SDS011;20504;43.214;27.920;2023-08-07T14:17:57;2.53;;;1.60;;
34242;SDS011;20504;43.214;27.920;2023-08-07T14:20:23;1.60;;;1.50;;
34242;SDS011;20504;43.214;27.920;2023-08-07T14:22:49;5.55;;;2.17;;
34242;SDS011;20504;43.214;27.920;2023-08-07T14:25:15;2.60;;;1.85;;
34242;SDS011;20504;43.214;27.920;2023-08-07T14:27:41;1.73;;;1.50;;
34242;SDS011;20504;43.214;27.920;2023-08-07T14:30:07;3.13;;;1.48;;
34242;SDS011;20504;43.214;27.920;2023-08-07T14:32:32;1.58;;;1.48;;
34242;SDS011;20504;43.214;27.920;2023-08-07T14:34:58;1.63;;;1.48;;
34242;SDS011;20504;43.214;27.920;2023-08-07T14:37:23;3.10;;;1.55;;
34242;SDS011;20504;43.214;27.920;2023-08-07T14:39:49;2.03;;;1.52;;
34242;SDS011;20504;43.214;27.920;2023-08-07T14:42:14;4.20;;;1.50;;
34242;SDS011;20504;43.214;27.920;2023-08-07T14:44:40;2.08;;;1.88;;
34242;SDS011;20504;43.214;27.920;2023-08-07T14:47:06;2.00;;;1.73;;
34242;SDS011;20504;43.214;27.920;2023-08-07T14:49:31;4.55;;;1.40;;
34242;SDS011;20504;43.214;27.920;2023-08-07T14:51:57;1.45;;;1.35;;
34242;SDS011;20504;43.214;27.920;2023-08-07T14:54:22;1.60;;;1.38;;
34242;SDS011;20504;43.214;27.920;2023-08-07T14:56:48;2.25;;;1.33;;
34242;SDS011;20504;43.214;27.920;2023-08-07T14:59:16;2.38;;;1.60;;
34242;SDS011;20504;43.214;27.920;2023-08-07T15:04:36;2.67;;;1.40;;
34242;SDS011;20504;43.214;27.920;2023-08-07T15:07:02;1.85;;;1.40;;
34242;SDS011;20504;43.214;27.920;2023-08-07T15:09:29;3.55;;;1.80;;
34242;SDS011;20504;43.214;27.920;2023-08-07T15:11:55;3.63;;;1.50;;